Time;durP1;ratioP1;P1;durP2;ratioP2;P2;SDS_P1;SDS_P2;PMS_P1;PMS_P2;Temp;Humidity;BMP_temperature;BMP_pressure;BME280_temperature;BME280_humidity;BME280_pressure;Samples;Min_cycle;Max_cycle;Signal;HPM_P1;HPM_P2
2023/11/06 00:04:05;;;;;;;5.40;1.13;;;;;;;;;;10183230;29;20499;-73
2023/11/06 00:09:09;;;;;;;2.38;1.23;;;;;;;;;;10197271;29;20132;-73
2023/11/06 00:14:12;;;;;;;5.30;1.15;;;;;;;;;;10190119;29;20056;-74
2023/11/06 00:19:16;;;;;;;3.22;1.20;;;;;;;;;;10183743;29;20123;-74
2023/11/06 00:24:20;;;;;;;3.95;1.27;;;;;;;;;;10199674;29;20048;-73
2023/11/06 00:29:23;;;;;;;4.30;1.48;;;;;;;;;;10197061;29;20040;-73
2023/11/06 00:34:27;;;;;;;3.08;0.93;;;;;;;;;;10175336;29;20119;-73
2023/11/06 00:39:31;;;;;;;6.35;1.55;;;;;;;;;;10169252;29;20138;-73
2023/11/06 00:44:34;;;;;;;5.78;1.15;;;;;;;;;;10203763;29;20048;-74
2023/11/06 00:49:39;;;;;;;4.53;1.45;;;;;;;;;;10195659;29;20079;-74
2023/11/06 00:54:42;;;;;;;4.50;1.20;;;;;;;;;;10190618;29;20048;-74
2023/11/06 00:59:45;;;;;;;3.25;0.95;;;;;;;;;;10199453;29;20052;-74
2023/11/06 01:04:50;;;;;;;2.70;0.88;;;;;;;;;;10189205;29;20057;-74
2023/11/06 01:09:53;;;;;;;4.65;1.00;;;;;;;;;;10194681;29;20071;-74
2023/11/06 01:14:57;;;;;;;5.00;0.90;;;;;;;;;;10191674;29;20067;-74
2023/11/06 01:20:04;;;;;;;3.83;0.75;;;;;;;;;;10181708;29;20057;-74
2023/11/06 01:25:09;;;;;;;6.07;1.10;;;;;;;;;;10190493;29;20043;-73
2023/11/06 01:30:12;;;;;;;4.50;1.10;;;;;;;;;;10183183;29;20040;-74
2023/11/06 01:35:19;;;;;;;5.03;1.17;;;;;;;;;;10194829;29;20052;-73
2023/11/06 01:40:23;;;;;;;2.70;0.90;;;;;;;;;;10184574;29;20102;-73
2023/11/06 01:45:26;;;;;;;3.35;1.20;;;;;;;;;;10183932;29;20062;-73
2023/11/06 01:50:32;;;;;;;2.30;0.80;;;;;;;;;;10177184;29;20052;-73
2023/11/06 01:55:35;;;;;;;;;;;;;;;;;;10189991;29;20051;-74
2023/11/06 02:00:40;;;;;;;2.30;0.90;;;;;;;;;;10176660;29;20519;-74
2023/11/06 02:05:46;;;;;;;3.55;0.80;;;;;;;;;;10158413;29;20706;-74
2023/11/06 02:10:49;;;;;;;3.57;1.17;;;;;;;;;;10176449;29;20079;-74
2023/11/06 02:15:53;;;;;;;6.25;1.15;;;;;;;;;;10188457;29;20502;-74
2023/11/06 02:21:02;;;;;;;5.18;1.35;;;;;;;;;;10174443;29;20090;-74
2023/11/06 02:26:09;;;;;;;3.63;0.90;;;;;;;;;;10189349;29;20728;-74
2023/11/06 02:31:12;;;;;;;3.15;1.10;;;;;;;;;;10174301;29;20048;-73
2023/11/06 02:36:15;;;;;;;3.15;1.10;;;;;;;;;;10168244;29;20095;-73
2023/11/06 02:41:20;;;;;;;2.53;0.90;;;;;;;;;;10187562;29;20391;-73
2023/11/06 02:46:23;;;;;;;2.58;0.80;;;;;;;;;;10179599;29;20052;-73
2023/11/06 02:51:26;;;;;;;3.97;1.30;;;;;;;;;;10187418;29;20052;-73
2023/11/06 02:56:34;;;;;;;5.95;1.00;;;;;;;;;;10179517;29;20056;-74
2023/11/06 03:01:37;;;;;;;1.90;0.85;;;;;;;;;;10184777;29;20052;-74
2023/11/06 03:06:41;;;;;;;6.65;1.27;;;;;;;;;;10166996;29;20513;-73
2023/11/06 03:11:46;;;;;;;3.10;0.95;;;;;;;;;;10172847;29;20409;-73
2023/11/06 03:16:49;;;;;;;3.38;0.90;;;;;;;;;;10164901;29;20066;-73
2023/11/06 03:21:52;;;;;;;2.60;1.05;;;;;;;;;;10167453;29;20099;-74
2023/11/06 03:26:57;;;;;;;5.72;1.20;;;;;;;;;;10157477;29;20158;-73
2023/11/06 03:32:00;;;;;;;4.05;0.90;;;;;;;;;;10168612;29;20052;-73
2023/11/06 03:37:04;;;;;;;2.55;1.10;;;;;;;;;;10165401;29;20143;-74
2023/11/06 03:42:09;;;;;;;2.53;0.80;;;;;;;;;;10187126;29;20058;-73
2023/11/06 03:47:12;;;;;;;5.43;1.35;;;;;;;;;;10193393;29;20094;-73
2023/11/06 03:52:15;;;;;;;4.28;1.27;;;;;;;;;;10187911;29;20387;-73
2023/11/06 03:57:20;;;;;;;4.43;1.20;;;;;;;;;;10189556;29;20044;-73
2023/11/06 04:02:23;;;;;;;5.07;1.35;;;;;;;;;;10183877;29;20036;-73
2023/11/06 04:07:26;;;;;;;7.32;1.15;;;;;;;;;;10187559;29;20140;-73
2023/11/06 04:12:32;;;;;;;6.18;1.10;;;;;;;;;;10184026;29;20557;-73
2023/11/06 04:17:35;;;;;;;6.35;1.20;;;;;;;;;;10184303;29;20421;-74
2023/11/06 04:22:38;;;;;;;7.93;1.90;;;;;;;;;;10189404;29;20076;-73
2023/11/06 04:27:43;;;;;;;6.60;1.50;;;;;;;;;;10194569;29;20417;-73
2023/11/06 04:32:46;;;;;;;6.72;1.00;;;;;;;;;;10193413;29;20044;-73
2023/11/06 04:37:50;;;;;;;3.13;1.15;;;;;;;;;;10191109;29;20064;-73
2023/11/06 04:42:54;;;;;;;4.95;1.52;;;;;;;;;;10186432;29;20048;-74
2023/11/06 04:47:58;;;;;;;5.00;1.40;;;;;;;;;;10196679;29;20044;-74
2023/11/06 04:53:01;;;;;;;5.63;1.40;;;;;;;;;;10200401;29;20079;-73
2023/11/06 04:58:06;;;;;;;5.00;1.30;;;;;;;;;;10193974;29;20067;-73
2023/11/06 05:03:10;;;;;;;7.63;1.60;;;;;;;;;;10194520;29;20056;-73
2023/11/06 05:08:13;;;;;;;7.22;1.80;;;;;;;;;;10193378;29;20048;-73
2023/11/06 05:13:17;;;;;;;9.02;1.92;;;;;;;;;;10190175;29;20048;-73
2023/11/06 05:18:21;;;;;;;5.78;1.52;;;;;;;;;;10193215;29;20445;-73
2023/11/06 05:23:24;;;;;;;3.13;0.98;;;;;;;;;;10197980;29;20055;-73
2023/11/06 05:28:29;;;;;;;6.35;1.73;;;;;;;;;;10195339;29;20683;-73
2023/11/06 05:33:32;;;;;;;6.75;1.30;;;;;;;;;;10187293;29;20052;-73
2023/11/06 05:38:35;;;;;;;7.40;1.83;;;;;;;;;;10178636;29;20158;-73
2023/11/06 05:43:40;;;;;;;6.88;1.45;;;;;;;;;;10198383;29;20062;-73
2023/11/06 05:48:44;;;;;;;6.85;1.88;;;;;;;;;;10196515;29;20060;-73
2023/11/06 05:53:47;;;;;;;4.65;1.55;;;;;;;;;;10189496;29;20447;-73
2023/11/06 05:58:51;;;;;;;6.60;1.73;;;;;;;;;;10199920;29;20111;-73
2023/11/06 06:03:55;;;;;;;6.35;1.65;;;;;;;;;;10184168;29;20520;-73
2023/11/06 06:08:59;;;;;;;8.02;1.33;;;;;;;;;;10197800;29;20050;-73
2023/11/06 06:14:03;;;;;;;4.78;1.65;;;;;;;;;;10166120;29;20413;-74
2023/11/06 06:19:07;;;;;;;5.18;1.17;;;;;;;;;;10198178;29;20710;-73
2023/11/06 06:24:10;;;;;;;7.20;1.25;;;;;;;;;;10198799;29;20036;-73
2023/11/06 06:29:15;;;;;;;4.07;1.10;;;;;;;;;;10197611;29;20513;-73
2023/11/06 06:34:19;;;;;;;4.03;1.40;;;;;;;;;;10199619;29;20052;-73
2023/11/06 06:39:23;;;;;;;8.98;1.80;;;;;;;;;;10200723;29;20126;-73
2023/11/06 06:44:27;;;;;;;3.95;1.45;;;;;;;;;;10195513;29;20065;-73
2023/11/06 06:49:32;;;;;;;6.97;1.42;;;;;;;;;;10171353;29;20143;-73
2023/11/06 06:54:35;;;;;;;4.88;1.50;;;;;;;;;;10180651;29;20668;-73
2023/11/06 06:59:40;;;;;;;6.65;1.60;;;;;;;;;;10168360;29;20052;-73
2023/11/06 07:04:44;;;;;;;7.38;1.48;;;;;;;;;;10188371;29;20530;-73
2023/11/06 07:09:47;;;;;;;4.63;1.45;;;;;;;;;;10183377;29;20048;-73
2023/11/06 07:14:52;;;;;;;5.95;1.70;;;;;;;;;;10183169;29;20430;-73
2023/11/06 07:19:55;;;;;;;5.53;1.55;;;;;;;;;;10172723;29;20051;-73
2023/11/06 07:24:58;;;;;;;3.60;1.17;;;;;;;;;;10171465;29;20147;-73
2023/11/06 07:30:03;;;;;;;4.45;1.42;;;;;;;;;;10178543;29;20040;-73
2023/11/06 07:35:09;;;;;;;7.65;1.95;;;;;;;;;;10156862;29;20048;-73
2023/11/06 07:40:13;;;;;;;6.70;1.60;;;;;;;;;;10178429;29;20052;-73
2023/11/06 07:45:18;;;;;;;10.95;1.85;;;;;;;;;;10214270;23;20055;-76
2023/11/06 07:50:22;;;;;;;9.88;1.88;;;;;;;;;;10176523;29;20074;-76
2023/11/06 07:55:25;;;;;;;4.20;1.27;;;;;;;;;;10186991;29;20147;-76
2023/11/06 08:00:30;;;;;;;7.53;1.70;;;;;;;;;;10183620;29;20052;-76
2023/11/06 08:05:38;;;;;;;3.97;1.45;;;;;;;;;;10182677;29;20458;-76
2023/11/06 08:10:41;;;;;;;4.07;1.35;;;;;;;;;;10195835;29;20048;-76
2023/11/06 08:15:47;;;;;;;3.95;1.25;;;;;;;;;;10185889;29;20510;-76
2023/11/06 08:20:51;;;;;;;;;;;;;;;;;;10182732;29;20120;-77
2023/11/06 08:25:54;;;;;;;4.78;1.70;;;;;;;;;;10192721;29;19930;-76
2023/11/06 08:30:59;;;;;;;6.00;1.70;;;;;;;;;;10196826;29;20143;-76
2023/11/06 08:36:03;;;;;;;6.63;1.20;;;;;;;;;;10184972;29;20048;-76
2023/11/06 08:41:08;;;;;;;5.07;1.60;;;;;;;;;;10189730;29;20066;-76
2023/11/06 08:46:13;;;;;;;5.17;1.50;;;;;;;;;;10189899;29;20118;-76
2023/11/06 08:51:16;;;;;;;5.90;1.30;;;;;;;;;;10189272;29;20058;-76
2023/11/06 08:56:23;;;;;;;5.80;1.10;;;;;;;;;;10200239;29;20040;-76
2023/11/06 09:01:28;;;;;;;5.57;1.30;;;;;;;;;;10193415;29;20540;-75
2023/11/06 09:06:32;;;;;;;5.65;1.40;;;;;;;;;;10188574;29;20573;-76
2023/11/06 09:11:36;;;;;;;6.28;1.55;;;;;;;;;;10187283;29;20111;-76
2023/11/06 09:16:41;;;;;;;8.63;1.20;;;;;;;;;;10180618;29;20631;-76
2023/11/06 09:21:45;;;;;;;6.28;1.10;;;;;;;;;;10192104;29;20082;-76
2023/11/06 09:26:48;;;;;;;3.72;1.23;;;;;;;;;;10190978;29;20044;-76
2023/11/06 09:31:54;;;;;;;6.80;2.00;;;;;;;;;;10192698;29;20063;-76
2023/11/06 09:36:58;;;;;;;5.85;1.40;;;;;;;;;;10193931;29;20467;-76
2023/11/06 09:42:02;;;;;;;5.93;1.75;;;;;;;;;;10186754;29;20059;-76
2023/11/06 09:47:07;;;;;;;4.90;1.27;;;;;;;;;;10198234;29;20071;-76
2023/11/06 09:52:11;;;;;;;6.32;1.40;;;;;;;;;;10177232;29;20092;-76
2023/11/06 09:57:15;;;;;;;5.15;1.70;;;;;;;;;;10201281;29;20046;-76
2023/11/06 10:02:23;;;;;;;6.55;1.70;;;;;;;;;;10192565;29;20904;-76
2023/11/06 10:07:39;;;;;;;9.07;1.50;;;;;;;;;;10186061;29;20138;-76
2023/11/06 10:12:42;;;;;;;;;;;;;;;;;;10196027;29;20891;-77
2023/11/06 10:17:47;;;;;;;5.55;1.25;;;;;;;;;;10182186;29;19923;-76
2023/11/06 10:22:55;;;;;;;7.00;1.45;;;;;;;;;;10184730;29;20418;-76
2023/11/06 10:27:58;;;;;;;5.50;1.40;;;;;;;;;;10183212;29;20135;-76
2023/11/06 10:33:14;;;;;;;6.03;1.98;;;;;;;;;;10193178;29;20048;-76
2023/11/06 10:38:29;;;;;;;5.18;1.50;;;;;;;;;;10165313;29;20070;-76
2023/11/06 10:43:32;;;;;;;6.20;1.52;;;;;;;;;;10186477;29;20229;-76
2023/11/06 10:48:48;;;;;;;4.35;1.15;;;;;;;;;;10187730;29;20040;-76
2023/11/06 10:53:52;;;;;;;8.40;1.30;;;;;;;;;;10190318;29;20866;-76
2023/11/06 10:58:58;;;;;;;2.22;1.00;;;;;;;;;;10181431;29;20059;-76
2023/11/06 11:04:08;;;;;;;2.90;1.02;;;;;;;;;;10190393;29;20056;-76
2023/11/06 11:09:12;;;;;;;7.15;1.48;;;;;;;;;;10184025;29;20062;-76
2023/11/06 11:14:16;;;;;;;3.40;1.30;;;;;;;;;;10180532;29;20500;-76
2023/11/06 11:19:27;;;;;;;3.03;1.08;;;;;;;;;;10185491;29;20059;-76
2023/11/06 11:24:53;;;;;;;6.65;1.67;;;;;;;;;;10184777;29;20056;-76
2023/11/06 11:30:09;;;;;;;2.60;0.90;;;;;;;;;;10174023;29;20390;-76
2023/11/06 11:35:31;;;;;;;;;;;;;;;;;;10196512;29;20395;-76
2023/11/06 11:41:09;;;;;;;2.83;1.08;;;;;;;;;;10194059;29;20327;-76
2023/11/06 11:46:55;;;;;;;3.03;0.80;;;;;;;;;;10192152;29;20786;-76
2023/11/06 11:51:58;;;;;;;5.95;1.23;;;;;;;;;;10113937;29;20055;-76
2023/11/06 11:57:04;;;;;;;3.53;1.00;;;;;;;;;;10169775;29;20123;-76
2023/11/06 12:02:21;;;;;;;2.17;0.90;;;;;;;;;;10189524;29;20523;-76
2023/11/06 12:07:28;;;;;;;3.97;1.30;;;;;;;;;;10193714;29;20051;-76
2023/11/06 12:12:32;;;;;;;3.83;0.97;;;;;;;;;;10186212;29;20091;-76
2023/11/06 12:17:37;;;;;;;2.40;0.90;;;;;;;;;;10200860;29;20082;-77
2023/11/06 12:22:47;;;;;;;2.78;0.73;;;;;;;;;;10200175;29;20639;-76
2023/11/06 12:27:52;;;;;;;2.78;1.00;;;;;;;;;;10192949;29;20119;-76
2023/11/06 12:32:55;;;;;;;1.58;0.80;;;;;;;;;;10192248;29;20040;-76
2023/11/06 12:37:59;;;;;;;3.50;1.00;;;;;;;;;;10166184;29;20601;-76
2023/11/06 12:43:04;;;;;;;4.40;1.17;;;;;;;;;;10198725;29;20087;-76
2023/11/06 12:48:28;;;;;;;3.30;0.80;;;;;;;;;;10192800;29;20044;-77
2023/11/06 12:53:32;;;;;;;2.95;1.17;;;;;;;;;;10195455;29;20140;-77
2023/11/06 12:58:37;;;;;;;4.60;1.10;;;;;;;;;;10188279;29;20083;-77
2023/11/06 13:03:44;;;;;;;2.05;0.75;;;;;;;;;;10195995;29;20060;-76
2023/11/06 13:08:49;;;;;;;4.35;0.95;;;;;;;;;;10197964;29;20584;-77
2023/11/06 13:13:55;;;;;;;3.05;1.10;;;;;;;;;;10191330;29;20056;-77
2023/11/06 13:18:59;;;;;;;;;;;;;;;;;;10193188;29;20044;-77
2023/11/06 13:24:02;;;;;;;4.88;1.00;;;;;;;;;;10188813;29;20448;-77
2023/11/06 13:29:11;;;;;;;2.10;0.55;;;;;;;;;;10174307;29;20469;-77
2023/11/06 13:34:16;;;;;;;1.52;0.80;;;;;;;;;;10182404;29;20071;-77
2023/11/06 13:39:24;;;;;;;1.30;0.60;;;;;;;;;;10174858;29;20058;-77
2023/11/06 13:44:30;;;;;;;0.90;0.60;;;;;;;;;;10180771;29;20510;-76
2023/11/06 13:49:33;;;;;;;2.10;0.87;;;;;;;;;;10197026;29;20143;-76
2023/11/06 13:54:38;;;;;;;2.15;0.57;;;;;;;;;;10189755;29;20054;-76
2023/11/06 13:59:44;;;;;;;2.28;0.75;;;;;;;;;;10196188;29;20051;-77
2023/11/06 14:04:53;;;;;;;1.17;0.50;;;;;;;;;;10197551;29;20135;-77
2023/11/06 14:09:57;;;;;;;2.13;0.57;;;;;;;;;;10194058;29;20058;-77
2023/11/06 14:15:04;;;;;;;0.75;0.40;;;;;;;;;;10176359;29;20052;-76
2023/11/06 14:20:10;;;;;;;0.93;0.40;;;;;;;;;;10191299;29;20591;-77
2023/11/06 14:25:13;;;;;;;1.65;0.32;;;;;;;;;;10183733;29;20532;-77
2023/11/06 14:30:20;;;;;;;0.32;0.32;;;;;;;;;;10185677;29;20047;-77
2023/11/06 14:35:23;;;;;;;1.52;0.32;;;;;;;;;;10186733;29;20055;-76
2023/11/06 14:40:27;;;;;;;1.50;0.40;;;;;;;;;;10177799;29;20067;-77
2023/11/06 14:45:33;;;;;;;0.52;0.30;;;;;;;;;;10185876;29;20388;-77
2023/11/06 14:50:36;;;;;;;0.28;0.22;;;;;;;;;;10178972;29;20052;-77
2023/11/06 14:55:40;;;;;;;0.75;0.25;;;;;;;;;;10178681;29;20076;-77
2023/11/06 15:00:45;;;;;;;0.50;0.20;;;;;;;;;;10194853;29;20500;-76
2023/11/06 15:05:48;;;;;;;0.52;0.40;;;;;;;;;;10197722;29;20126;-76
2023/11/06 15:10:51;;;;;;;0.68;0.40;;;;;;;;;;10167723;29;20063;-77
2023/11/06 15:15:57;;;;;;;0.77;0.35;;;;;;;;;;10190761;29;20075;-76
2023/11/06 15:21:00;;;;;;;0.95;0.50;;;;;;;;;;10194005;29;20044;-77
2023/11/06 15:26:03;;;;;;;2.53;1.25;;;;;;;;;;10186230;29;20052;-76
2023/11/06 15:31:09;;;;;;;2.70;1.23;;;;;;;;;;10198657;29;20050;-76
2023/11/06 15:36:13;;;;;;;1.05;0.57;;;;;;;;;;10190020;29;20051;-77
2023/11/06 15:41:17;;;;;;;0.77;0.45;;;;;;;;;;10190912;29;20135;-77
2023/11/06 15:46:21;;;;;;;1.25;0.40;;;;;;;;;;10177274;29;20058;-76
2023/11/06 15:51:26;;;;;;;0.70;0.50;;;;;;;;;;10199067;29;20059;-76
2023/11/06 15:56:29;;;;;;;0.93;0.60;;;;;;;;;;10192964;29;20062;-77
2023/11/06 16:01:35;;;;;;;2.00;0.40;;;;;;;;;;10196990;29;20492;-76
2023/11/06 16:06:38;;;;;;;0.98;0.60;;;;;;;;;;10184547;29;20090;-77
2023/11/06 16:11:41;;;;;;;0.73;0.50;;;;;;;;;;10190584;29;20044;-77
2023/11/06 16:16:46;;;;;;;1.85;0.77;;;;;;;;;;10203009;29;20131;-77
2023/11/06 16:21:49;;;;;;;1.52;0.77;;;;;;;;;;10206433;29;20048;-77
2023/11/06 16:26:52;;;;;;;0.50;0.50;;;;;;;;;;10198028;29;20131;-76
2023/11/06 16:31:57;;;;;;;0.73;0.52;;;;;;;;;;10185072;29;20530;-77
2023/11/06 16:37:00;;;;;;;1.15;0.50;;;;;;;;;;10199669;29;20056;-76
2023/11/06 16:42:04;;;;;;;0.98;0.50;;;;;;;;;;10204053;29;20539;-77
2023/11/06 16:47:09;;;;;;;1.75;0.55;;;;;;;;;;10190148;29;20410;-77
2023/11/06 16:52:12;;;;;;;1.20;0.60;;;;;;;;;;10197869;29;20066;-76
2023/11/06 16:57:15;;;;;;;1.75;0.80;;;;;;;;;;10199208;29;20080;-76
2023/11/06 17:02:20;;;;;;;2.00;1.00;;;;;;;;;;10199052;29;20047;-76
2023/11/06 17:07:24;;;;;;;1.50;1.10;;;;;;;;;;10195291;29;20527;-77
2023/11/06 17:12:28;;;;;;;1.30;0.65;;;;;;;;;;10191597;29;20106;-77
2023/11/06 17:17:34;;;;;;;1.35;0.80;;;;;;;;;;10185037;29;20414;-77
2023/11/06 17:22:38;;;;;;;0.40;0.40;;;;;;;;;;10198224;29;20055;-76
2023/11/06 17:27:41;;;;;;;1.83;0.50;;;;;;;;;;10198272;29;20075;-77
2023/11/06 17:32:46;;;;;;;0.50;0.35;;;;;;;;;;10196331;29;20075;-76
2023/11/06 17:37:49;;;;;;;2.92;0.57;;;;;;;;;;10202849;29;20048;-76
2023/11/06 17:42:52;;;;;;;1.50;0.80;;;;;;;;;;10196086;29;20056;-76
2023/11/06 17:47:57;;;;;;;0.95;0.40;;;;;;;;;;10191200;29;20410;-76
2023/11/06 17:53:00;;;;;;;0.50;0.40;;;;;;;;;;10167679;29;20110;-76
2023/11/06 17:58:04;;;;;;;0.40;0.40;;;;;;;;;;10195966;29;20543;-76
2023/11/06 18:03:08;;;;;;;0.60;0.47;;;;;;;;;;10180474;29;20048;-76
2023/11/06 18:08:13;;;;;;;0.88;0.52;;;;;;;;;;10188939;29;20585;-76
2023/11/06 18:13:16;;;;;;;3.28;0.60;;;;;;;;;;10184838;29;20059;-76
2023/11/06 18:18:20;;;;;;;0.40;0.40;;;;;;;;;;10191823;29;20058;-77
2023/11/06 18:23:24;;;;;;;0.60;0.50;;;;;;;;;;10192581;29;20052;-77
2023/11/06 18:28:27;;;;;;;2.10;0.90;;;;;;;;;;10192564;29;20051;-76
2023/11/06 18:33:34;;;;;;;0.50;0.50;;;;;;;;;;10189783;29;20060;-76
2023/11/06 18:38:37;;;;;;;1.80;0.70;;;;;;;;;;10183983;29;20048;-76
2023/11/06 18:43:41;;;;;;;2.55;0.80;;;;;;;;;;10193024;29;20134;-76
2023/11/06 18:48:45;;;;;;;2.50;1.17;;;;;;;;;;10201373;29;20059;-76
2023/11/06 18:53:49;;;;;;;1.25;0.90;;;;;;;;;;10196443;29;20131;-76
2023/11/06 18:58:52;;;;;;;0.75;0.70;;;;;;;;;;10199679;29;20048;-76
2023/11/06 19:03:57;;;;;;;1.60;0.90;;;;;;;;;;10196467;29;20070;-76
2023/11/06 19:09:02;;;;;;;1.27;0.80;;;;;;;;;;10191872;29;20060;-76
2023/11/06 19:14:05;;;;;;;1.23;0.60;;;;;;;;;;10188190;29;20048;-77
2023/11/06 19:19:09;;;;;;;1.95;0.73;;;;;;;;;;10195040;29;20040;-77
2023/11/06 19:24:19;;;;;;;1.00;0.77;;;;;;;;;;10192485;29;20140;-77
2023/11/06 19:29:22;;;;;;;0.73;0.50;;;;;;;;;;10185873;29;20040;-76
2023/11/06 19:34:28;;;;;;;0.90;0.50;;;;;;;;;;10185840;29;20058;-77
2023/11/06 19:39:31;;;;;;;1.23;0.75;;;;;;;;;;10189698;29;20134;-76
2023/11/06 19:44:35;;;;;;;2.30;0.80;;;;;;;;;;10194100;29;20062;-77
2023/11/06 19:49:39;;;;;;;1.10;0.60;;;;;;;;;;10189196;29;20044;-76
2023/11/06 19:54:43;;;;;;;1.08;0.63;;;;;;;;;;10196122;29;20126;-77
2023/11/06 19:59:46;;;;;;;1.75;0.68;;;;;;;;;;10191397;29;20055;-77
2023/11/06 20:04:56;;;;;;;0.85;0.52;;;;;;;;;;10204977;29;20044;-76
2023/11/06 20:09:59;;;;;;;1.05;0.60;;;;;;;;;;10204935;29;20036;-77
2023/11/06 20:15:04;;;;;;;1.27;0.60;;;;;;;;;;10206724;29;20043;-76
2023/11/06 20:20:10;;;;;;;0.57;0.50;;;;;;;;;;10209002;29;20047;-76
2023/11/06 20:25:13;;;;;;;0.50;0.50;;;;;;;;;;10182801;29;20048;-77
2023/11/06 20:30:17;;;;;;;0.95;0.40;;;;;;;;;;10197719;29;20103;-77
2023/11/06 20:35:23;;;;;;;1.55;0.40;;;;;;;;;;10193947;29;20051;-76
2023/11/06 20:40:30;;;;;;;1.08;0.40;;;;;;;;;;10194189;29;20044;-77
2023/11/06 20:45:34;;;;;;;1.70;0.40;;;;;;;;;;10206964;29;20138;-77
2023/11/06 20:50:38;;;;;;;0.77;0.40;;;;;;;;;;10202836;29;20040;-77
2023/11/06 20:55:41;;;;;;;1.38;0.43;;;;;;;;;;10207018;29;20066;-77
2023/11/06 21:00:47;;;;;;;1.10;0.60;;;;;;;;;;10196919;29;20170;-77
2023/11/06 21:05:52;;;;;;;0.80;0.40;;;;;;;;;;10204859;29;20160;-77
2023/11/06 21:10:55;;;;;;;1.40;0.40;;;;;;;;;;10200710;29;20577;-77
2023/11/06 21:15:58;;;;;;;1.00;0.43;;;;;;;;;;10206497;29;20143;-77
2023/11/06 21:21:04;;;;;;;0.70;0.47;;;;;;;;;;10205206;29;20405;-77
2023/11/06 21:26:07;;;;;;;0.40;0.40;;;;;;;;;;10205426;29;20525;-77
2023/11/06 21:31:10;;;;;;;1.00;0.50;;;;;;;;;;10200132;29;20569;-76
2023/11/06 21:36:15;;;;;;;0.82;0.40;;;;;;;;;;10201257;29;20055;-77
2023/11/06 21:41:18;;;;;;;1.05;0.40;;;;;;;;;;10205836;29;20052;-76
2023/11/06 21:46:21;;;;;;;0.68;0.30;;;;;;;;;;10188570;29;20056;-77
2023/11/06 21:51:26;;;;;;;0.55;0.40;;;;;;;;;;10205880;29;20509;-76
2023/11/06 21:56:32;;;;;;;1.02;0.50;;;;;;;;;;10199315;29;20134;-77
2023/11/06 22:01:35;;;;;;;1.35;0.65;;;;;;;;;;10191464;29;20052;-76
2023/11/06 22:06:40;;;;;;;1.02;0.40;;;;;;;;;;10188136;29;20138;-76
2023/11/06 22:11:44;;;;;;;0.52;0.47;;;;;;;;;;10200295;29;20103;-76
2023/11/06 22:16:52;;;;;;;0.40;0.40;;;;;;;;;;10201844;29;20071;-77
2023/11/06 22:21:56;;;;;;;0.30;0.30;;;;;;;;;;10188484;29;20119;-77
2023/11/06 22:27:00;;;;;;;1.17;0.47;;;;;;;;;;10175940;29;20414;-77
2023/11/06 22:32:03;;;;;;;0.32;0.30;;;;;;;;;;10188726;29;20089;-77
2023/11/06 22:37:08;;;;;;;1.85;0.50;;;;;;;;;;10176933;29;20143;-77
2023/11/06 22:42:11;;;;;;;1.92;0.47;;;;;;;;;;10171991;29;20468;-77
2023/11/06 22:47:14;;;;;;;1.50;0.57;;;;;;;;;;10188707;29;20044;-77
2023/11/06 22:52:19;;;;;;;1.77;0.60;;;;;;;;;;10192130;29;20131;-77
2023/11/06 22:57:22;;;;;;;3.90;0.90;;;;;;;;;;10192343;29;20052;-77
2023/11/06 23:02:26;;;;;;;1.08;0.55;;;;;;;;;;10188290;29;20052;-77
2023/11/06 23:07:31;;;;;;;1.58;0.47;;;;;;;;;;10186074;29;20135;-77
2023/11/06 23:12:34;;;;;;;1.52;0.57;;;;;;;;;;10190356;29;20144;-77
2023/11/06 23:17:38;;;;;;;1.52;0.70;;;;;;;;;;10190286;29;20060;-76
2023/11/06 23:22:44;;;;;;;2.88;0.93;;;;;;;;;;10193471;29;20135;-76
2023/11/06 23:27:47;;;;;;;0.98;0.65;;;;;;;;;;10195740;29;20059;-76
2023/11/06 23:32:51;;;;;;;1.25;0.60;;;;;;;;;;10193560;29;20394;-77
2023/11/06 23:37:56;;;;;;;1.05;0.40;;;;;;;;;;10190162;29;20102;-76
2023/11/06 23:42:59;;;;;;;1.08;0.50;;;;;;;;;;10193358;29;20055;-77
2023/11/06 23:48:03;;;;;;;0.63;0.60;;;;;;;;;;10187785;29;20056;-77
2023/11/06 23:53:07;;;;;;;1.00;0.57;;;;;;;;;;10188803;29;20111;-77
2023/11/06 23:58:11;;;;;;;1.92;0.63;;;;;;;;;;10191605;29;20394;-76
